createdAt,value
2023-01-11T00:00:12.185Z,6.1
2023-01-11T00:03:11.888Z,6.1
2023-01-11T00:06:12.058Z,6.2
2023-01-11T00:09:11.808Z,6.2
2023-01-11T00:12:12.040Z,6.2
2023-01-11T00:15:11.801Z,6.4
2023-01-11T00:18:11.977Z,6.4
2023-01-11T00:21:12.003Z,6.4
2023-01-11T00:24:12.128Z,6.4
2023-01-11T00:27:11.857Z,6.2
2023-01-11T00:30:11.861Z,6.2
2023-01-11T00:33:11.964Z,6.2
2023-01-11T00:36:11.968Z,6.2
2023-01-11T00:39:12.026Z,6.1
2023-01-11T00:42:11.847Z,6.2
2023-01-11T00:45:11.971Z,6.4
2023-01-11T00:48:11.995Z,6.4
2023-01-11T00:51:11.973Z,6.5
2023-01-11T00:54:11.884Z,6.5
2023-01-11T00:57:12.050Z,6.6
2023-01-11T01:00:11.929Z,6.6
2023-01-11T01:03:11.839Z,6.6
2023-01-11T01:06:11.935Z,6.7
2023-01-11T01:09:11.965Z,6.7
2023-01-11T01:12:12.074Z,6.7
2023-01-11T01:15:11.906Z,6.9
2023-01-11T01:18:11.914Z,6.9
2023-01-11T01:21:11.867Z,6.9
2023-01-11T01:24:11.929Z,7
2023-01-11T01:27:11.878Z,7
2023-01-11T01:30:11.968Z,7
2023-01-11T01:33:11.931Z,7.1
2023-01-11T01:36:11.880Z,7.1
2023-01-11T01:39:11.980Z,7.1
2023-01-11T01:42:11.862Z,7.1
2023-01-11T01:45:12.020Z,7.2
2023-01-11T01:48:12.028Z,7.2
2023-01-11T01:51:11.978Z,7.2
2023-01-11T01:54:11.943Z,7.2
2023-01-11T01:57:11.853Z,7.2
2023-01-11T02:00:11.996Z,7.2
2023-01-11T02:03:12.469Z,7.2
2023-01-11T02:06:11.911Z,7.2
2023-01-11T02:09:11.873Z,7.4
2023-01-11T02:12:11.876Z,7.4
2023-01-11T02:15:11.986Z,7.4
2023-01-11T02:18:11.949Z,7.4
2023-01-11T02:21:11.936Z,7.4
2023-01-11T02:24:11.929Z,7.4
2023-01-11T02:27:11.890Z,7.4
2023-01-11T02:30:12.145Z,7.4
2023-01-11T02:33:11.816Z,7.4
2023-01-11T02:36:11.912Z,7.2
2023-01-11T02:39:11.953Z,7.2
2023-01-11T02:42:11.905Z,7.2
2023-01-11T02:45:11.844Z,7.1
2023-01-11T02:48:11.929Z,7.1
2023-01-11T02:51:12.165Z,7.1
2023-01-11T02:54:11.865Z,7.1
2023-01-11T02:57:11.813Z,7.1
2023-01-11T03:00:12.013Z,7.1
2023-01-11T03:03:12.471Z,7.1
2023-01-11T03:06:11.994Z,7.1
2023-01-11T03:09:11.878Z,7.1
2023-01-11T03:12:12.070Z,7
2023-01-11T03:15:12.400Z,7
2023-01-11T03:18:11.928Z,7.1
2023-01-11T03:21:12.015Z,7.1
2023-01-11T03:24:12.031Z,7.1
2023-01-11T03:27:11.806Z,7.2
2023-01-11T03:30:11.943Z,7.2
2023-01-11T03:33:11.794Z,7.2
2023-01-11T03:36:11.826Z,7.2
2023-01-11T03:39:12.020Z,7.4
2023-01-11T03:42:11.919Z,7.4
2023-01-11T03:45:11.860Z,7.5
2023-01-11T03:48:11.995Z,7.5
2023-01-11T03:51:11.961Z,7.6
2023-01-11T03:54:11.881Z,7.6
2023-01-11T03:57:11.976Z,7.6
2023-01-11T04:00:11.948Z,7.7
2023-01-11T04:03:11.833Z,7.7
2023-01-11T04:06:11.959Z,7.7
2023-01-11T04:09:11.820Z,7.7
2023-01-11T04:12:11.973Z,7.7
2023-01-11T04:15:11.934Z,7.7
2023-01-11T04:18:11.900Z,7.7
2023-01-11T04:21:11.899Z,7.7
2023-01-11T04:24:11.922Z,7.7
2023-01-11T04:27:11.808Z,7.9
2023-01-11T04:30:11.963Z,7.9
2023-01-11T04:33:11.876Z,7.9
2023-01-11T04:36:11.838Z,7.9
2023-01-11T04:39:11.935Z,7.9
2023-01-11T04:42:11.971Z,7.9
2023-01-11T04:45:11.941Z,7.9
2023-01-11T04:48:11.887Z,8
2023-01-11T04:51:11.823Z,8.1
2023-01-11T04:54:11.896Z,8.3
2023-01-11T04:57:11.880Z,8.3
2023-01-11T05:00:12.015Z,8.3
2023-01-11T05:03:11.912Z,8.4
2023-01-11T05:06:12.103Z,8.5
2023-01-11T05:09:12.343Z,8.5
2023-01-11T05:12:12.362Z,8.5
2023-01-11T05:15:12.402Z,8.6
2023-01-11T05:18:12.384Z,8.6
2023-01-11T05:21:12.335Z,8.6
2023-01-11T05:24:12.355Z,8.6
2023-01-11T05:27:12.241Z,8.8
2023-01-11T05:30:12.336Z,8.8
2023-01-11T05:33:12.401Z,8.8
2023-01-11T05:36:12.590Z,8.8
2023-01-11T05:39:12.448Z,8.9
2023-01-11T05:42:12.426Z,8.9
2023-01-11T05:45:12.440Z,8.9
2023-01-11T05:48:12.316Z,8.9
2023-01-11T05:51:12.814Z,8.9
2023-01-11T05:54:12.406Z,9
2023-01-11T05:57:12.427Z,9
2023-01-11T06:00:12.370Z,9
2023-01-11T06:03:12.717Z,9
2023-01-11T06:06:12.454Z,9
2023-01-11T06:09:12.376Z,9.1
2023-01-11T06:12:12.673Z,9.1
2023-01-11T06:15:12.556Z,9.1
2023-01-11T06:18:12.311Z,9.1
2023-01-11T06:21:12.386Z,9.3
2023-01-11T06:24:12.331Z,9.3
2023-01-11T06:27:12.383Z,9.3
2023-01-11T06:30:12.336Z,9.3
2023-01-11T06:33:12.525Z,9.3
2023-01-11T06:36:12.433Z,9.3
2023-01-11T06:39:12.431Z,9.1
2023-01-11T06:42:12.475Z,9.3
2023-01-11T06:45:12.290Z,9.1
2023-01-11T06:48:12.327Z,9.1
2023-01-11T06:51:12.614Z,9.1
2023-01-11T06:54:12.440Z,9.1
2023-01-11T06:57:12.436Z,9.3
2023-01-11T07:00:13.128Z,9.3
2023-01-11T07:03:12.468Z,9.3
2023-01-11T07:06:12.301Z,9.3
2023-01-11T07:09:12.297Z,9.3
2023-01-11T07:12:12.307Z,9.3
2023-01-11T07:15:12.556Z,9.1
2023-01-11T07:18:12.284Z,9.1
2023-01-11T07:21:12.402Z,9
2023-01-11T07:24:12.440Z,9
2023-01-11T07:27:12.363Z,8.9
2023-01-11T07:30:14.570Z,8.8
2023-01-11T07:33:13.402Z,8.8
2023-01-11T07:36:12.490Z,8.8
2023-01-11T07:39:12.329Z,8.8
2023-01-11T07:42:14.134Z,8.6
2023-01-11T07:45:12.542Z,8.6
2023-01-11T07:48:12.452Z,8.6
2023-01-11T07:51:12.534Z,8.8
2023-01-11T07:54:12.379Z,8.8
2023-01-11T07:57:12.406Z,8.6
2023-01-11T08:00:12.448Z,8.8
2023-01-11T08:03:13.466Z,8.6
2023-01-11T08:06:12.450Z,8.6
2023-01-11T08:09:12.611Z,8.8
2023-01-11T08:12:12.448Z,8.8
2023-01-11T08:15:12.481Z,8.8
2023-01-11T08:18:12.601Z,8.8
2023-01-11T08:21:14.132Z,8.8
2023-01-11T08:24:12.357Z,8.8
2023-01-11T08:27:12.888Z,8.8
2023-01-11T08:30:12.528Z,8.9
2023-01-11T08:33:12.384Z,8.9
2023-01-11T08:36:12.386Z,8.9
2023-01-11T08:39:12.454Z,8.9
2023-01-11T08:42:12.450Z,8.9
2023-01-11T08:45:12.427Z,9
2023-01-11T08:48:12.478Z,9
2023-01-11T08:51:12.417Z,9
2023-01-11T08:54:12.928Z,9.1
2023-01-11T08:57:12.345Z,9.1
2023-01-11T09:00:12.636Z,9.1
2023-01-11T09:03:12.947Z,9.1
2023-01-11T09:06:12.437Z,9.1
2023-01-11T09:09:12.371Z,9.1
2023-01-11T09:12:14.550Z,9.1
2023-01-11T09:15:12.900Z,9.1
2023-01-11T09:18:12.470Z,9.3
2023-01-11T09:21:12.413Z,9.3
2023-01-11T09:24:12.371Z,9.3
2023-01-11T09:27:13.343Z,9.4
2023-01-11T09:30:12.609Z,9.6
2023-01-11T09:33:12.348Z,9.9
2023-01-11T09:36:12.501Z,10
2023-01-11T09:39:12.468Z,10
2023-01-11T09:42:12.471Z,9.9
2023-01-11T09:45:12.494Z,9.9
2023-01-11T09:48:12.402Z,9.9
2023-01-11T09:51:12.759Z,9.9
2023-01-11T09:54:12.428Z,9.9
2023-01-11T09:57:12.342Z,9.8
2023-01-11T10:00:12.632Z,9.8
2023-01-11T10:03:12.492Z,9.8
2023-01-11T10:06:12.373Z,9.8
2023-01-11T10:21:12.392Z,10
2023-01-11T10:24:12.539Z,10
2023-01-11T10:27:13.088Z,10
2023-01-11T10:30:12.496Z,10
2023-01-11T10:33:12.616Z,10
2023-01-11T10:36:12.440Z,10
2023-01-11T10:39:12.329Z,10
2023-01-11T10:42:12.453Z,9.9
2023-01-11T10:45:12.664Z,10
2023-01-11T10:48:12.421Z,10.1
2023-01-11T10:51:12.501Z,10.3
2023-01-11T10:54:12.384Z,10.3
2023-01-11T10:57:17.077Z,10.3
2023-01-11T11:00:12.419Z,10.4
2023-01-11T11:03:12.358Z,10.4
2023-01-11T11:06:13.630Z,10.4
2023-01-11T11:09:12.412Z,10.5
2023-01-11T11:12:12.429Z,10.5
2023-01-11T11:15:12.595Z,10.5
2023-01-11T11:18:12.701Z,10.5
2023-01-11T11:21:12.321Z,10.5
2023-01-11T11:24:12.414Z,10.4
2023-01-11T11:27:12.911Z,10.3
2023-01-11T11:30:12.466Z,10.3
2023-01-11T11:33:12.435Z,10.3
2023-01-11T11:36:12.481Z,10.4
2023-01-11T11:39:12.511Z,10.4
2023-01-11T11:42:12.346Z,10.4
2023-01-11T11:45:12.631Z,10.4
2023-01-11T11:48:12.629Z,10.4
2023-01-11T11:51:12.648Z,10.4
2023-01-11T11:54:12.392Z,10.4
2023-01-11T11:57:12.323Z,10.4
2023-01-11T12:00:12.549Z,10.4
2023-01-11T12:03:12.331Z,10.4
2023-01-11T12:06:12.375Z,10.4
2023-01-11T12:09:12.386Z,10.3
2023-01-11T12:12:12.495Z,10.3
2023-01-11T12:15:12.446Z,10.3
2023-01-11T12:18:14.187Z,10.1
2023-01-11T12:21:12.375Z,10
2023-01-11T12:24:12.432Z,10
2023-01-11T12:27:12.960Z,9.9
2023-01-11T12:30:12.589Z,9.9
2023-01-11T12:33:12.406Z,9.9
2023-01-11T12:36:14.607Z,9.9
2023-01-11T12:39:12.313Z,9.9
2023-01-11T12:42:12.335Z,9.9
2023-01-11T12:45:12.839Z,10
2023-01-11T12:48:12.613Z,10
2023-01-11T12:51:12.313Z,10
2023-01-11T12:54:12.455Z,9.9
2023-01-11T12:57:12.342Z,9.9
2023-01-11T13:00:12.408Z,9.9
2023-01-11T13:03:12.451Z,9.8
2023-01-11T13:06:12.462Z,9.8
2023-01-11T13:09:12.485Z,9.8
2023-01-11T13:12:13.455Z,9.8
2023-01-11T13:15:12.420Z,9.8
2023-01-11T13:18:12.435Z,9.8
2023-01-11T13:21:16.094Z,9.8
2023-01-11T13:24:12.486Z,9.8
2023-01-11T13:27:12.761Z,9.8
2023-01-11T13:30:12.567Z,9.8
2023-01-11T13:33:12.471Z,9.8
2023-01-11T13:36:30.249Z,9.9
2023-01-11T13:39:12.353Z,9.9
2023-01-11T13:42:12.450Z,10
2023-01-11T13:45:12.407Z,10
2023-01-11T13:48:12.394Z,10.1
2023-01-11T13:51:12.501Z,10.1
2023-01-11T13:54:12.400Z,10.3
2023-01-11T13:57:12.504Z,10.4
2023-01-11T14:00:12.742Z,10.4
2023-01-11T14:03:12.578Z,10.4
2023-01-11T14:06:12.453Z,10.3
2023-01-11T14:09:12.517Z,10.3
2023-01-11T14:12:12.460Z,10.3
2023-01-11T14:15:12.617Z,10.3
2023-01-11T14:18:12.441Z,10.3
2023-01-11T14:21:12.312Z,10.1
2023-01-11T14:27:12.394Z,10
2023-01-11T14:30:12.821Z,9.9
2023-01-11T14:33:12.068Z,9.8
2023-01-11T14:36:12.038Z,9.8
2023-01-11T14:39:12.028Z,9.8
2023-01-11T14:42:25.702Z,9.8
2023-01-11T14:45:12.153Z,9.8
2023-01-11T14:48:12.090Z,9.8
2023-01-11T14:51:11.991Z,9.6
2023-01-11T14:54:11.990Z,9.5
2023-01-11T14:57:12.009Z,9.4
2023-01-11T15:00:12.145Z,9.3
2023-01-11T15:03:12.038Z,9.1
2023-01-11T15:06:12.097Z,9
2023-01-11T15:09:11.972Z,9
2023-01-11T15:12:11.966Z,8.9
2023-01-11T15:15:12.058Z,8.8
2023-01-11T15:18:12.062Z,8.8
2023-01-11T15:21:12.012Z,8.6
2023-01-11T15:24:12.055Z,8.5
2023-01-11T15:27:13.284Z,8.5
2023-01-11T15:30:12.055Z,8.4
2023-01-11T15:33:11.936Z,8.3
2023-01-11T15:36:11.949Z,8.3
2023-01-11T15:39:11.886Z,8.3
2023-01-11T15:42:11.946Z,8.1
2023-01-11T15:45:11.980Z,8
2023-01-11T15:48:12.096Z,7.9
2023-01-11T15:51:11.879Z,7.9
2023-01-11T15:54:11.901Z,7.7
2023-01-11T15:57:12.051Z,7.6
2023-01-11T16:00:12.264Z,7.6
2023-01-11T16:03:12.088Z,7.6
2023-01-11T16:06:11.916Z,7.5
2023-01-11T16:09:11.886Z,7.5
2023-01-11T16:12:11.974Z,7.5
2023-01-11T16:15:11.955Z,7.4
2023-01-11T16:18:11.944Z,7.4
2023-01-11T16:21:11.993Z,7.2
2023-01-11T16:24:11.888Z,7.2
2023-01-11T16:27:12.511Z,7.1
2023-01-11T16:30:12.161Z,7.1
2023-01-11T16:33:11.930Z,7.1
2023-01-11T16:36:12.022Z,7
2023-01-11T16:39:11.871Z,7
2023-01-11T16:42:12.029Z,7
2023-01-11T16:45:13.818Z,7
2023-01-11T16:48:11.934Z,7
2023-01-11T16:51:12.058Z,6.9
2023-01-11T16:54:12.312Z,6.9
2023-01-11T16:57:11.981Z,7
2023-01-11T17:00:12.007Z,7
2023-01-11T17:03:11.900Z,7
2023-01-11T17:06:11.846Z,7
2023-01-11T17:09:24.289Z,6.9
2023-01-11T17:12:11.923Z,6.9
2023-01-11T17:15:11.984Z,6.7
2023-01-11T17:18:11.896Z,6.7
2023-01-11T17:21:11.919Z,6.7
2023-01-11T17:24:12.081Z,6.6
2023-01-11T17:27:15.089Z,6.5
2023-01-11T17:30:12.059Z,6.4
2023-01-11T17:33:11.939Z,6.4
2023-01-11T17:36:11.923Z,6.2
2023-01-11T17:39:11.914Z,6.2
2023-01-11T17:42:11.944Z,6.2
2023-01-11T17:45:12.062Z,6.2
2023-01-11T17:48:11.935Z,6.1
2023-01-11T17:51:11.957Z,6
2023-01-11T17:54:11.922Z,6
2023-01-11T17:57:11.926Z,6
2023-01-11T18:00:11.993Z,6
2023-01-11T18:03:12.030Z,6
2023-01-11T18:06:12.404Z,6
2023-01-11T18:09:11.972Z,5.9
2023-01-11T18:12:11.867Z,5.9
2023-01-11T18:15:12.065Z,5.9
2023-01-11T18:18:11.972Z,5.9
2023-01-11T18:21:11.949Z,5.9
2023-01-11T18:24:11.937Z,5.9
2023-01-11T18:27:12.431Z,5.7
2023-01-11T18:30:11.907Z,5.7
2023-01-11T18:33:11.940Z,5.7
2023-01-11T18:36:12.009Z,5.7
2023-01-11T18:39:11.985Z,5.6
2023-01-11T18:42:12.031Z,5.6
2023-01-11T18:45:11.989Z,5.6
2023-01-11T18:48:11.992Z,5.6
2023-01-11T18:51:11.930Z,5.6
2023-01-11T18:54:11.940Z,5.6
2023-01-11T18:57:11.949Z,5.6
2023-01-11T19:00:12.057Z,5.6
2023-01-11T19:03:11.923Z,5.7
2023-01-11T19:06:11.965Z,5.7
2023-01-11T19:09:11.943Z,5.6
2023-01-11T19:12:11.941Z,5.6
2023-01-11T19:15:11.987Z,5.5
2023-01-11T19:21:11.943Z,5.5
2023-01-11T19:24:11.888Z,5.4
2023-01-11T19:27:12.517Z,5.5
2023-01-11T19:30:11.997Z,5.5
2023-01-11T19:33:12.161Z,5.5
2023-01-11T19:36:11.878Z,5.5
2023-01-11T19:39:11.990Z,5.4
2023-01-11T19:42:12.135Z,5.4
2023-01-11T19:45:11.990Z,5.4
2023-01-11T19:48:11.966Z,5.4
2023-01-11T19:51:11.899Z,5.4
2023-01-11T19:54:11.937Z,5.5
2023-01-11T19:57:11.927Z,5.5
2023-01-11T20:00:14.236Z,5.5
2023-01-11T20:03:12.288Z,5.4
2023-01-11T20:06:11.994Z,5.4
2023-01-11T20:09:12.040Z,5.4
2023-01-11T20:12:11.953Z,5.4
2023-01-11T20:15:11.956Z,5.5
2023-01-11T20:18:11.953Z,5.5
2023-01-11T20:21:12.030Z,5.5
2023-01-11T20:24:11.940Z,5.6
2023-01-11T20:27:12.727Z,5.6
2023-01-11T20:30:11.949Z,5.6
2023-01-11T20:33:11.998Z,5.6
2023-01-11T20:36:11.888Z,5.6
2023-01-11T20:39:12.194Z,5.5
2023-01-11T20:42:11.997Z,5.5
2023-01-11T20:45:11.933Z,5.6
2023-01-11T20:48:12.016Z,5.6
2023-01-11T20:51:12.017Z,5.7
2023-01-11T20:54:12.006Z,5.7
2023-01-11T20:57:12.176Z,5.7
2023-01-11T21:00:12.147Z,5.6
2023-01-11T21:03:12.340Z,5.6
2023-01-11T21:06:13.206Z,5.7
2023-01-11T21:09:11.962Z,5.6
2023-01-11T21:12:14.015Z,5.6
2023-01-11T21:15:12.035Z,5.6
2023-01-11T21:18:11.957Z,5.6
2023-01-11T21:21:11.975Z,5.5
2023-01-11T21:24:11.968Z,5.5
2023-01-11T21:27:12.440Z,5.6
2023-01-11T21:30:12.984Z,5.6
2023-01-11T21:33:12.000Z,5.6
2023-01-11T21:36:12.037Z,5.6
2023-01-11T21:39:12.125Z,5.6
2023-01-11T21:42:11.941Z,5.6
2023-01-11T21:45:12.310Z,5.6
2023-01-11T21:48:11.903Z,5.6
2023-01-11T21:51:12.100Z,5.6
2023-01-11T21:54:11.934Z,5.6
2023-01-11T21:57:11.950Z,5.6
2023-01-11T22:00:11.986Z,5.6
2023-01-11T22:03:11.932Z,5.6
2023-01-11T22:06:12.625Z,5.6
2023-01-11T22:09:11.961Z,5.7
2023-01-11T22:12:11.949Z,5.7
2023-01-11T22:15:12.057Z,5.9
2023-01-11T22:18:11.966Z,5.9
2023-01-11T22:21:12.054Z,5.9
2023-01-11T22:24:14.689Z,5.9
2023-01-11T22:27:12.349Z,5.9
2023-01-11T22:30:11.922Z,6
2023-01-11T22:33:11.910Z,6
2023-01-11T22:36:11.961Z,6.1
2023-01-11T22:39:12.092Z,6.1
2023-01-11T22:42:11.890Z,6.1
2023-01-11T22:45:12.026Z,6.2
2023-01-11T22:48:11.918Z,6.2
2023-01-11T22:51:12.174Z,6.2
2023-01-11T22:54:12.068Z,6.2
2023-01-11T22:57:11.953Z,6.2
2023-01-11T23:00:13.886Z,6.4
2023-01-11T23:03:12.735Z,6.4
2023-01-11T23:06:11.963Z,6.5
2023-01-11T23:09:13.623Z,6.5
2023-01-11T23:12:11.966Z,6.6
2023-01-11T23:15:11.933Z,6.7
2023-01-11T23:18:11.915Z,6.7
2023-01-11T23:21:11.902Z,6.9
2023-01-11T23:24:11.952Z,7
2023-01-11T23:27:12.455Z,7
2023-01-11T23:30:11.955Z,7.1
2023-01-11T23:33:11.968Z,7.1
2023-01-11T23:36:11.917Z,7.2
2023-01-11T23:39:11.897Z,7.4
2023-01-11T23:42:12.049Z,7.2
2023-01-11T23:45:11.979Z,7.2
2023-01-11T23:48:11.965Z,7.1
2023-01-11T23:51:11.942Z,7.1
2023-01-11T23:54:11.930Z,7.1
2023-01-11T23:57:12.058Z,7.1
